Time;durP1;ratioP1;P1;durP2;ratioP2;P2;SDS_P1;SDS_P2;PMS_P1;PMS_P2;Temp;Humidity;BMP_temperature;BMP_pressure;BME280_temperature;BME280_humidity;BME280_pressure;Samples;Min_cycle;Max_cycle;Signal;HPM_P1;HPM_P2
2023/02/26 00:01:06;;;;;;;;;;;;;;;;;;4452360;32;19945;-76
2023/02/26 00:03:31;;;;;;;;;;;;;;;;;;4438969;32;19929;-80
2023/02/26 00:05:57;;;;;;;;;;;;;;;;;;4452082;32;20012;-78
2023/02/26 00:08:22;;;;;;;;;;;;;;;;;;4452043;32;19935;-81
2023/02/26 00:10:47;;;;;;;;;;;;;;;;;;4445105;32;19994;-81
2023/02/26 00:13:12;;;;;;;;;;;;;;;;;;4436685;32;20026;-79
2023/02/26 00:15:37;;;;;;;;;;;;;;;;;;4437989;32;19955;-81
2023/02/26 00:18:02;;;;;;;;;;;;;;;;;;4437317;32;20003;-80
2023/02/26 00:20:28;;;;;;;;;;;;;;;;;;4441420;32;20295;-80
2023/02/26 00:22:53;;;;;;;;;;;;;;;;;;4428381;32;19940;-81
2023/02/26 00:25:18;;;;;;;;;;;;;;;;;;4443166;32;19971;-79
2023/02/26 00:27:43;;;;;;;;;;;;;;;;;;4426271;32;19968;-80
2023/02/26 00:30:08;;;;;;;;;;;;;;;;;;4427473;32;20355;-81
2023/02/26 00:32:33;;;;;;;;;;;;;;;;;;4415105;32;19949;-80
2023/02/26 00:34:58;;;;;;;;;;;;;;;;;;4428714;32;20333;-81
2023/02/26 00:37:23;;;;;;;;;;;;;;;;;;4435033;32;19937;-80
2023/02/26 00:39:48;;;;;;;;;;;;;;;;;;4426637;32;19971;-79
2023/02/26 00:42:14;;;;;;;;;;;;;;;;;;4425910;32;20318;-80
2023/02/26 00:44:39;;;;;;;;;;;;;;;;;;4424834;32;19941;-80
2023/02/26 00:47:04;;;;;;;;;;;;;;;;;;4425243;32;19969;-79
2023/02/26 00:49:29;;;;;;;;;;;;;;;;;;4424826;32;20355;-81
2023/02/26 00:51:54;;;;;;;;;;;;;;;;;;4430498;32;19941;-81
2023/02/26 00:54:20;;;;;;;;;;;;;;;;;;4440980;32;19956;-81
2023/02/26 00:56:45;;;;;;;;;;;;;;;;;;4439682;32;20250;-78
2023/02/26 00:59:10;;;;;;;;;;;;;;;;;;4443736;32;19953;-80
2023/02/26 01:01:35;;;;;;;;;;;;;;;;;;4428449;32;19941;-80
2023/02/26 01:04:00;;;;;;;;;;;;;;;;;;4440558;32;19977;-81
2023/02/26 01:06:25;;;;;;;;;;;;;;;;;;4424721;32;19981;-80
2023/02/26 01:08:50;;;;;;;;;;;;;;;;;;4438772;32;20255;-80
2023/02/26 01:11:15;;;;;;;;;;;;;;;;;;4440325;32;19951;-80
2023/02/26 01:13:40;;;;;;;;;;;;;;;;;;4440216;32;19937;-81
2023/02/26 01:16:05;;;;;;;;;;;;;;;;;;4438658;32;19945;-80
2023/02/26 01:18:31;;;;;;;;;;;;;;;;;;4438635;32;20351;-81
2023/02/26 01:20:56;;;;;;;;;;;;;;;;;;4438872;32;19933;-80
2023/02/26 01:23:21;;;;;;;;;;;;;;;;;;4438959;32;19949;-80
2023/02/26 01:25:46;;;;;;;;;;;;;;;;;;4438181;32;19932;-80
2023/02/26 01:28:11;;;;;;;;;;;;;;;;;;4439719;32;19970;-80
2023/02/26 01:30:36;;;;;;;;;;;;;;;;;;4438875;32;20250;-80
2023/02/26 01:33:01;;;;;;;;;;;;;;;;;;4424696;32;19989;-81
2023/02/26 01:35:26;;;;;;;;;;;;;;;;;;4437990;32;20347;-80
2023/02/26 01:37:51;;;;;;;;;;;;;;;;;;4438743;32;19937;-80
2023/02/26 01:40:17;;;;;;;;;;;;;;;;;;4438051;32;19948;-81
2023/02/26 01:42:42;;;;;;;;;;;;;;;;;;4437300;32;19982;-80
2023/02/26 01:45:07;;;;;;;;;;;;;;;;;;4437241;32;19951;-80
2023/02/26 01:47:32;;;;;;;;;;;;;;;;;;4424839;32;19947;-80
2023/02/26 01:49:57;;;;;;;;;;;;;;;;;;4437859;32;20299;-80
2023/02/26 01:52:22;;;;;;;;;;;;;;;;;;4440260;32;19982;-80
2023/02/26 01:54:47;;;;;;;;;;;;;;;;;;4439886;32;19941;-80
2023/02/26 01:57:12;;;;;;;;;;;;;;;;;;4438231;32;20070;-80
2023/02/26 01:59:37;;;;;;;;;;;;;;;;;;4438089;32;20280;-80
2023/02/26 02:02:02;;;;;;;;;;;;;;;;;;4424609;32;20330;-79
2023/02/26 02:04:27;;;;;;;;;;;;;;;;;;4438197;32;19955;-80
2023/02/26 02:06:53;;;;;;;;;;;;;;;;;;4438275;32;19984;-80
2023/02/26 02:09:18;;;;;;;;;;;;;;;;;;4437932;32;19933;-81
2023/02/26 02:11:43;;;;;;;;;;;;;;;;;;4437791;32;19988;-81
2023/02/26 02:14:08;;;;;;;;;;;;;;;;;;4438272;32;19937;-79
2023/02/26 02:16:33;;;;;;;;;;;;;;;;;;4424162;32;19976;-80
2023/02/26 02:18:58;;;;;;;;;;;;;;;;;;4424720;32;19981;-80
2023/02/26 02:21:23;;;;;;;;;;;;;;;;;;4438143;32;20304;-81
2023/02/26 02:23:48;;;;;;;;;;;;;;;;;;4424180;32;19944;-80
2023/02/26 02:26:14;;;;;;;;;;;;;;;;;;4437062;32;19933;-80
2023/02/26 02:28:39;;;;;;;;;;;;;;;;;;4423636;32;19971;-80
2023/02/26 02:31:05;;;;;;;;;;;;;;;;;;4437285;32;19969;-80
2023/02/26 02:33:30;;;;;;;;;;;;;;;;;;4438643;32;19996;-80
2023/02/26 02:35:56;;;;;;;;;;;;;;;;;;4437240;32;20274;-80
2023/02/26 02:38:21;;;;;;;;;;;;;;;;;;4438044;32;19941;-80
2023/02/26 02:40:46;;;;;;;;;;;;;;;;;;4438605;32;19936;-80
2023/02/26 02:43:11;;;;;;;;;;;;;;;;;;4438387;32;19944;-80
2023/02/26 02:45:36;;;;;;;;;;;;;;;;;;4437561;32;19937;-80
2023/02/26 02:48:01;;;;;;;;;;;;;;;;;;4437204;32;19967;-81
2023/02/26 02:50:26;;;;;;;;;;;;;;;;;;4439840;32;19937;-81
2023/02/26 02:52:51;;;;;;;;;;;;;;;;;;4427664;32;19964;-80
2023/02/26 02:55:16;;;;;;;;;;;;;;;;;;4429501;32;19941;-80
2023/02/26 02:57:41;;;;;;;;;;;;;;;;;;4438526;32;19974;-81
2023/02/26 03:00:07;;;;;;;;;;;;;;;;;;4438728;32;19947;-81
2023/02/26 03:02:32;;;;;;;;;;;;;;;;;;4437532;32;19984;-79
2023/02/26 03:04:58;;;;;;;;;;;;;;;;;;4422716;32;19936;-80
2023/02/26 03:07:23;;;;;;;;;;;;;;;;;;4437247;32;20027;-80
2023/02/26 03:09:48;;;;;;;;;;;;;;;;;;4438082;32;19936;-80
2023/02/26 03:12:13;;;;;;;;;;;;;;;;;;4438703;32;19972;-80
2023/02/26 03:14:38;;;;;;;;;;;;;;;;;;4437370;32;19941;-79
2023/02/26 03:17:03;;;;;;;;;;;;;;;;;;4437522;32;19968;-80
2023/02/26 03:19:28;;;;;;;;;;;;;;;;;;4437953;32;20287;-80
2023/02/26 03:21:53;;;;;;;;;;;;;;;;;;4438336;32;19932;-80
2023/02/26 03:24:18;;;;;;;;;;;;;;;;;;4436839;32;20363;-80
2023/02/26 03:26:44;;;;;;;;;;;;;;;;;;4437850;32;19952;-79
2023/02/26 03:29:09;;;;;;;;;;;;;;;;;;4436356;32;19928;-79
2023/02/26 03:31:34;;;;;;;;;;;;;;;;;;4438735;32;19936;-80
2023/02/26 03:33:59;;;;;;;;;;;;;;;;;;4436744;32;19960;-80
2023/02/26 03:36:24;;;;;;;;;;;;;;;;;;4438794;32;20332;-79
2023/02/26 03:38:49;;;;;;;;;;;;;;;;;;4437089;32;19937;-80
2023/02/26 03:41:14;;;;;;;;;;;;;;;;;;4438118;32;19933;-80
2023/02/26 03:43:39;;;;;;;;;;;;;;;;;;4437423;32;19987;-80
2023/02/26 03:46:04;;;;;;;;;;;;;;;;;;4438551;32;19974;-79
2023/02/26 03:48:30;;;;;;;;;;;;;;;;;;4441699;32;19968;-79
2023/02/26 03:50:55;;;;;;;;;;;;;;;;;;4426276;32;19990;-79
2023/02/26 03:53:20;;;;;;;;;;;;;;;;;;4438040;32;19959;-79
2023/02/26 03:55:45;;;;;;;;;;;;;;;;;;4441012;32;20342;-82
2023/02/26 03:58:10;;;;;;;;;;;;;;;;;;4441559;32;20358;-80
2023/02/26 04:00:36;;;;;;;;;;;;;;;;;;4440632;32;19932;-80
2023/02/26 04:03:01;;;;;;;;;;;;;;;;;;4425899;32;20286;-79
2023/02/26 04:05:26;;;;;;;;;;;;;;;;;;4440328;32;20258;-80
2023/02/26 04:07:52;;;;;;;;;;;;;;;;;;4439673;32;20310;-81
2023/02/26 04:10:17;;;;;;;;;;;;;;;;;;4440266;32;19977;-79
2023/02/26 04:12:42;;;;;;;;;;;;;;;;;;4441139;32;19976;-79
2023/02/26 04:15:07;;;;;;;;;;;;;;;;;;4441789;32;19932;-79
2023/02/26 04:17:32;;;;;;;;;;;;;;;;;;4441353;32;19947;-81
2023/02/26 04:19:57;;;;;;;;;;;;;;;;;;4441155;32;20001;-81
2023/02/26 04:22:22;;;;;;;;;;;;;;;;;;4439832;32;19973;-80
2023/02/26 04:24:47;;;;;;;;;;;;;;;;;;4440404;32;19936;-79
2023/02/26 04:27:12;;;;;;;;;;;;;;;;;;4439886;32;20013;-80
2023/02/26 04:29:38;;;;;;;;;;;;;;;;;;4441312;32;20046;-81
2023/02/26 04:32:03;;;;;;;;;;;;;;;;;;4440800;32;19932;-78
2023/02/26 04:34:28;;;;;;;;;;;;;;;;;;4439725;32;19933;-80
2023/02/26 04:36:53;;;;;;;;;;;;;;;;;;4440038;32;19947;-79
2023/02/26 04:39:18;;;;;;;;;;;;;;;;;;4441334;32;19937;-81
2023/02/26 04:41:44;;;;;;;;;;;;;;;;;;4439505;32;19940;-79
2023/02/26 04:44:09;;;;;;;;;;;;;;;;;;4439990;32;20315;-79
2023/02/26 04:46:34;;;;;;;;;;;;;;;;;;4440966;32;19943;-80
2023/02/26 04:48:59;;;;;;;;;;;;;;;;;;4441303;32;19988;-79
2023/02/26 04:51:24;;;;;;;;;;;;;;;;;;4439170;32;19971;-78
2023/02/26 04:53:49;;;;;;;;;;;;;;;;;;4438680;32;20315;-80
2023/02/26 04:56:14;;;;;;;;;;;;;;;;;;4425017;32;19948;-80
2023/02/26 04:58:39;;;;;;;;;;;;;;;;;;4440278;32;19945;-81
2023/02/26 05:01:04;;;;;;;;;;;;;;;;;;4441272;32;19975;-81
2023/02/26 05:03:29;;;;;;;;;;;;;;;;;;4438889;32;19949;-80
2023/02/26 05:05:55;;;;;;;;;;;;;;;;;;4440202;32;19937;-80
2023/02/26 05:08:20;;;;;;;;;;;;;;;;;;4451022;32;19947;-80
2023/02/26 05:10:45;;;;;;;;;;;;;;;;;;4452257;32;19929;-80
2023/02/26 05:13:10;;;;;;;;;;;;;;;;;;4446978;32;19933;-80
2023/02/26 05:15:35;;;;;;;;;;;;;;;;;;4441625;32;19937;-80
2023/02/26 05:18:00;;;;;;;;;;;;;;;;;;4441303;32;19993;-79
2023/02/26 05:20:25;;;;;;;;;;;;;;;;;;4438589;32;19952;-79
2023/02/26 05:22:50;;;;;;;;;;;;;;;;;;4424039;32;19936;-80
2023/02/26 05:25:15;;;;;;;;;;;;;;;;;;4439181;32;19981;-81
2023/02/26 05:27:41;;;;;;;;;;;;;;;;;;4439495;32;19941;-80
2023/02/26 05:30:06;;;;;;;;;;;;;;;;;;4438027;32;19978;-80
2023/02/26 05:32:31;;;;;;;;;;;;;;;;;;4438019;32;19953;-79
2023/02/26 05:34:56;;;;;;;;;;;;;;;;;;4428470;32;19940;-81
2023/02/26 05:37:21;;;;;;;;;;;;;;;;;;4438993;32;19944;-80
2023/02/26 05:39:46;;;;;;;;;;;;;;;;;;4437849;32;19933;-79
2023/02/26 05:42:11;;;;;;;;;;;;;;;;;;4437423;32;19947;-79
2023/02/26 05:44:37;;;;;;;;;;;;;;;;;;4438116;32;19984;-80
2023/02/26 05:47:02;;;;;;;;;;;;;;;;;;4437752;32;19982;-78
2023/02/26 05:49:27;;;;;;;;;;;;;;;;;;4424972;32;19980;-80
2023/02/26 05:51:52;;;;;;;;;;;;;;;;;;4438288;32;20309;-80
2023/02/26 05:54:17;;;;;;;;;;;;;;;;;;4438009;32;19978;-80
2023/02/26 05:56:42;;;;;;;;;;;;;;;;;;4437834;32;19932;-79
2023/02/26 05:59:07;;;;;;;;;;;;;;;;;;4438809;32;19995;-80
2023/02/26 06:01:32;;;;;;;;;;;;;;;;;;4437922;32;20294;-80
2023/02/26 06:03:58;;;;;;;;;;;;;;;;;;4438794;32;19959;-79
2023/02/26 06:06:24;;;;;;;;;;;;;;;;;;4433619;32;20001;-80
2023/02/26 06:08:49;;;;;;;;;;;;;;;;;;4421771;32;20016;-81
2023/02/26 06:11:14;;;;;;;;;;;;;;;;;;4421698;32;19945;-79
2023/02/26 06:13:39;;;;;;;;;;;;;;;;;;4423162;32;19982;-80
2023/02/26 06:16:04;;;;;;;;;;;;;;;;;;4421194;32;19937;-79
2023/02/26 06:18:31;;;;;;;;;;;;;;;;;;4422059;32;19933;-80
2023/02/26 06:20:56;;;;;;;;;;;;;;;;;;4407446;32;19951;-79
2023/02/26 06:23:21;;;;;;;;;;;;;;;;;;4423501;32;19944;-80
2023/02/26 06:25:46;;;;;;;;;;;;;;;;;;4423100;32;19933;-79
2023/02/26 06:28:11;;;;;;;;;;;;;;;;;;4421798;32;19989;-80
2023/02/26 06:30:36;;;;;;;;;;;;;;;;;;4408720;32;19945;-80
2023/02/26 06:33:01;;;;;;;;;;;;;;;;;;4408484;32;19948;-80
2023/02/26 06:35:29;;;;;;;;;;;;;;;;;;4427486;32;20004;-80
2023/02/26 06:37:54;;;;;;;;;;;;;;;;;;4438315;32;19936;-79
2023/02/26 06:40:19;;;;;;;;;;;;;;;;;;4437039;32;20000;-80
2023/02/26 06:42:44;;;;;;;;;;;;;;;;;;4438156;32;19965;-79
2023/02/26 06:45:09;;;;;;;;;;;;;;;;;;4437343;32;20356;-80
2023/02/26 06:47:35;;;;;;;;;;;;;;;;;;4434703;32;19941;-79
2023/02/26 06:50:01;;;;;;;;;;;;;;;;;;4429418;32;20026;-80
2023/02/26 06:52:26;;;;;;;;;;;;;;;;;;4438166;32;19952;-80
2023/02/26 06:54:52;;;;;;;;;;;;;;;;;;4435357;32;20047;-80
2023/02/26 06:57:17;;;;;;;;;;;;;;;;;;4407345;32;20244;-81
2023/02/26 06:59:42;;;;;;;;;;;;;;;;;;4421464;32;19933;-80
2023/02/26 07:02:07;;;;;;;;;;;;;;;;;;4421535;32;20267;-79
2023/02/26 07:04:32;;;;;;;;;;;;;;;;;;4423089;32;19955;-80
2023/02/26 07:06:57;;;;;;;;;;;;;;;;;;4436202;32;19952;-79
2023/02/26 07:09:22;;;;;;;;;;;;;;;;;;4436603;32;19982;-80
2023/02/26 07:11:47;;;;;;;;;;;;;;;;;;4436685;32;19937;-80
2023/02/26 07:14:12;;;;;;;;;;;;;;;;;;4436963;32;19980;-80
2023/02/26 07:16:38;;;;;;;;;;;;;;;;;;4436828;32;19932;-80
2023/02/26 07:19:03;;;;;;;;;;;;;;;;;;4436994;32;20010;-80
2023/02/26 07:21:28;;;;;;;;;;;;;;;;;;4437888;32;20303;-80
2023/02/26 07:23:53;;;;;;;;;;;;;;;;;;4443409;32;19952;-80
2023/02/26 07:26:18;;;;;;;;;;;;;;;;;;4444915;32;19933;-80
2023/02/26 07:28:43;;;;;;;;;;;;;;;;;;4444565;32;19976;-80
2023/02/26 07:31:08;;;;;;;;;;;;;;;;;;4435504;32;19941;-80
2023/02/26 07:33:34;;;;;;;;;;;;;;;;;;4426463;32;19999;-80
2023/02/26 07:35:59;;;;;;;;;;;;;;;;;;4441431;32;19940;-80
2023/02/26 07:38:24;;;;;;;;;;;;;;;;;;4440031;32;19937;-79
2023/02/26 07:40:49;;;;;;;;;;;;;;;;;;4439507;32;19948;-80
2023/02/26 07:43:14;;;;;;;;;;;;;;;;;;4439649;32;19999;-78
2023/02/26 07:45:39;;;;;;;;;;;;;;;;;;4439403;32;19941;-77
2023/02/26 07:48:04;;;;;;;;;;;;;;;;;;4424819;32;20382;-78
2023/02/26 07:50:29;;;;;;;;;;;;;;;;;;4438875;32;19937;-78
2023/02/26 07:52:55;;;;;;;;;;;;;;;;;;4439240;32;19937;-78
2023/02/26 07:55:20;;;;;;;;;;;;;;;;;;4425585;32;19951;-78
2023/02/26 07:57:45;;;;;;;;;;;;;;;;;;4440760;32;19972;-77
2023/02/26 08:00:10;;;;;;;;;;;;;;;;;;4440797;32;19943;-77
2023/02/26 08:02:35;;;;;;;;;;;;;;;;;;4442515;32;19953;-78
2023/02/26 08:05:00;;;;;;;;;;;;;;;;;;4439506;32;19948;-78
2023/02/26 08:07:25;;;;;;;;;;;;;;;;;;4426013;32;19933;-78
2023/02/26 08:09:50;;;;;;;;;;;;;;;;;;4439412;32;20311;-78
2023/02/26 08:12:18;;;;;;;;;;;;;;;;;;4443260;32;19951;-77
2023/02/26 08:14:44;;;;;;;;;;;;;;;;;;4440924;32;19937;-77
2023/02/26 08:17:10;;;;;;;;;;;;;;;;;;4438650;32;19960;-78
2023/02/26 08:19:35;;;;;;;;;;;;;;;;;;4439432;32;20306;-77
2023/02/26 08:22:00;;;;;;;;;;;;;;;;;;4438969;32;20374;-76
2023/02/26 08:24:25;;;;;;;;;;;;;;;;;;4440991;32;20008;-77
2023/02/26 08:26:50;;;;;;;;;;;;;;;;;;4440750;32;19941;-78
2023/02/26 08:29:16;;;;;;;;;;;;;;;;;;4440010;32;19952;-76
2023/02/26 08:31:41;;;;;;;;;;;;;;;;;;4438534;32;19933;-77
2023/02/26 08:34:06;;;;;;;;;;;;;;;;;;4438409;32;19986;-77
2023/02/26 08:36:31;;;;;;;;;;;;;;;;;;4424299;32;19933;-77
2023/02/26 08:38:57;;;;;;;;;;;;;;;;;;4438682;32;19960;-77
2023/02/26 08:41:22;;;;;;;;;;;;;;;;;;4439149;32;19937;-77
2023/02/26 08:43:47;;;;;;;;;;;;;;;;;;4438767;32;20278;-77
2023/02/26 08:46:12;;;;;;;;;;;;;;;;;;4439985;32;19999;-77
2023/02/26 08:48:38;;;;;;;;;;;;;;;;;;4424657;32;19947;-77
2023/02/26 08:51:03;;;;;;;;;;;;;;;;;;4438441;32;19967;-76
2023/02/26 08:53:28;;;;;;;;;;;;;;;;;;4439567;32;20324;-77
2023/02/26 08:55:53;;;;;;;;;;;;;;;;;;4437788;32;19933;-77
2023/02/26 08:58:18;;;;;;;;;;;;;;;;;;4424131;32;19941;-78
2023/02/26 09:00:43;;;;;;;;;;;;;;;;;;4438149;32;20002;-77
2023/02/26 09:03:08;;;;;;;;;;;;;;;;;;4438286;32;20283;-76
2023/02/26 09:05:33;;;;;;;;;;;;;;;;;;4439267;32;19932;-77
2023/02/26 09:07:58;;;;;;;;;;;;;;;;;;4426305;32;19971;-77
2023/02/26 09:10:24;;;;;;;;;;;;;;;;;;4424419;32;19948;-76
2023/02/26 09:12:49;;;;;;;;;;;;;;;;;;4424094;32;19967;-77
2023/02/26 09:15:14;;;;;;;;;;;;;;;;;;4422918;32;20302;-77
2023/02/26 09:17:39;;;;;;;;;;;;;;;;;;4422863;32;19975;-76
2023/02/26 09:20:04;;;;;;;;;;;;;;;;;;4422163;32;20011;-77
2023/02/26 09:22:29;;;;;;;;;;;;;;;;;;4423266;32;19971;-77
2023/02/26 09:24:54;;;;;;;;;;;;;;;;;;4422686;32;20231;-78
2023/02/26 09:27:19;;;;;;;;;;;;;;;;;;4423706;32;19953;-77
2023/02/26 09:29:44;;;;;;;;;;;;;;;;;;4422096;32;19941;-78
2023/02/26 09:32:10;;;;;;;;;;;;;;;;;;4410209;32;19971;-76
2023/02/26 09:34:35;;;;;;;;;;;;;;;;;;4422522;32;19941;-77
2023/02/26 09:37:00;;;;;;;;;;;;;;;;;;4423593;32;19941;-77
2023/02/26 09:39:25;;;;;;;;;;;;;;;;;;4424920;32;20319;-77
2023/02/26 09:41:50;;;;;;;;;;;;;;;;;;4423763;32;19933;-77
2023/02/26 09:44:15;;;;;;;;;;;;;;;;;;4426081;32;19952;-76
2023/02/26 09:46:40;;;;;;;;;;;;;;;;;;4426580;32;20018;-76
2023/02/26 09:49:05;;;;;;;;;;;;;;;;;;4424023;32;19937;-76
2023/02/26 09:51:30;;;;;;;;;;;;;;;;;;4439927;32;19955;-77
2023/02/26 09:53:59;;;;;;;;;;;;;;;;;;4426596;32;20251;-75
2023/02/26 09:56:24;;;;;;;;;;;;;;;;;;4435397;32;19940;-76
2023/02/26 09:58:52;;;;;;;;;;;;;;;;;;4438898;32;19932;-77
2023/02/26 10:01:17;;;;;;;;;;;;;;;;;;4427943;32;19976;-76
2023/02/26 10:03:42;;;;;;;;;;;;;;;;;;4422089;32;19974;-75
2023/02/26 10:06:07;;;;;;;;;;;;;;;;;;4423143;32;19937;-76
2023/02/26 10:08:32;;;;;;;;;;;;;;;;;;4422290;32;19933;-75
2023/02/26 10:10:57;;;;;;;;;;;;;;;;;;4407645;32;20382;-76
2023/02/26 10:13:22;;;;;;;;;;;;;;;;;;4422920;32;20282;-77
2023/02/26 10:15:47;;;;;;;;;;;;;;;;;;4421978;32;19970;-77
2023/02/26 10:18:12;;;;;;;;;;;;;;;;;;4436641;32;19948;-74
2023/02/26 10:20:38;;;;;;;;;;;;;;;;;;4433115;32;19933;-77
2023/02/26 10:23:03;;;;;;;;;;;;;;;;;;4421212;32;20054;-76
2023/02/26 10:25:28;;;;;;;;;;;;;;;;;;4423273;32;20295;-76
2023/02/26 10:27:53;;;;;;;;;;;;;;;;;;4427517;32;19997;-76
2023/02/26 10:30:19;;;;;;;;;;;;;;;;;;4433549;32;19963;-77
2023/02/26 10:32:44;;;;;;;;;;;;;;;;;;4422571;32;19941;-75
2023/02/26 10:35:09;;;;;;;;;;;;;;;;;;4432647;32;19987;-76
2023/02/26 10:37:34;;;;;;;;;;;;;;;;;;4436423;32;19944;-74
2023/02/26 10:40:00;;;;;;;;;;;;;;;;;;4442572;32;19937;-74
2023/02/26 10:42:25;;;;;;;;;;;;;;;;;;4404872;32;19951;-74
2023/02/26 10:44:50;;;;;;;;;;;;;;;;;;4405152;32;19997;-74
2023/02/26 10:47:15;;;;;;;;;;;;;;;;;;4402757;32;19957;-74
2023/02/26 10:49:41;;;;;;;;;;;;;;;;;;4402813;32;19960;-75
2023/02/26 10:52:06;;;;;;;;;;;;;;;;;;4395750;32;20314;-75
2023/02/26 10:54:31;;;;;;;;;;;;;;;;;;4414174;32;20308;-74
2023/02/26 10:56:56;;;;;;;;;;;;;;;;;;4406078;32;20236;-75
2023/02/26 10:59:21;;;;;;;;;;;;;;;;;;4406078;32;20323;-75
2023/02/26 11:01:47;;;;;;;;;;;;;;;;;;4405584;32;19963;-75
2023/02/26 11:04:12;;;;;;;;;;;;;;;;;;4405861;32;19993;-74
2023/02/26 11:06:37;;;;;;;;;;;;;;;;;;4406161;32;19968;-73
2023/02/26 11:09:02;;;;;;;;;;;;;;;;;;4404661;32;19941;-74
2023/02/26 11:11:27;;;;;;;;;;;;;;;;;;4404075;32;19945;-75
2023/02/26 11:13:52;;;;;;;;;;;;;;;;;;4405648;32;19968;-75
2023/02/26 11:16:17;;;;;;;;;;;;;;;;;;4405028;32;19938;-74
2023/02/26 11:18:42;;;;;;;;;;;;;;;;;;4406663;32;20290;-75
2023/02/26 11:21:07;;;;;;;;;;;;;;;;;;4404969;32;19946;-75
2023/02/26 11:23:33;;;;;;;;;;;;;;;;;;4404582;32;20401;-75
2023/02/26 11:26:01;;;;;;;;;;;;;;;;;;4404674;32;20376;-74
2023/02/26 11:28:26;;;;;;;;;;;;;;;;;;4405099;32;19949;-75
2023/02/26 11:30:53;;;;;;;;;;;;;;;;;;4406061;32;19933;-76
2023/02/26 11:33:18;;;;;;;;;;;;;;;;;;4404158;32;19937;-72
2023/02/26 11:35:43;;;;;;;;;;;;;;;;;;4397432;32;20029;-80
2023/02/26 11:38:08;;;;;;;;;;;;;;;;;;4399507;32;19977;-73
2023/02/26 11:40:33;;;;;;;;;;;;;;;;;;4391248;32;19984;-73
2023/02/26 11:42:58;;;;;;;;;;;;;;;;;;4432226;32;19979;-74
2023/02/26 11:45:23;;;;;;;;;;;;;;;;;;4426315;32;20035;-73
2023/02/26 11:47:48;;;;;;;;;;;;;;;;;;4412207;32;20252;-74
2023/02/26 11:50:14;;;;;;;;;;;;;;;;;;4426225;32;19980;-74
2023/02/26 11:52:39;;;;;;;;;;;;;;;;;;4415508;32;20097;-74
2023/02/26 11:55:04;;;;;;;;;;;;;;;;;;4426166;32;19956;-73
2023/02/26 11:57:29;;;;;;;;;;;;;;;;;;4426941;32;20356;-73
2023/02/26 11:59:54;;;;;;;;;;;;;;;;;;4430757;32;19996;-73
2023/02/26 12:02:19;;;;;;;;;;;;;;;;;;4430031;32;19945;-73
2023/02/26 12:04:44;;;;;;;;;;;;;;;;;;4431562;32;19974;-73
2023/02/26 12:07:09;;;;;;;;;;;;;;;;;;4415653;32;19936;-72
2023/02/26 12:09:34;;;;;;;;;;;;;;;;;;4427090;32;19974;-73
2023/02/26 12:11:59;;;;;;;;;;;;;;;;;;4426103;32;19941;-73
2023/02/26 12:14:24;;;;;;;;;;;;;;;;;;4410807;32;20000;-73
2023/02/26 12:16:50;;;;;;;;;;;;;;;;;;4433840;32;19940;-73
2023/02/26 12:19:15;;;;;;;;;;;;;;;;;;4434499;32;19958;-72
2023/02/26 12:21:40;;;;;;;;;;;;;;;;;;4429645;32;19945;-73
2023/02/26 12:24:06;;;;;;;;;;;;;;;;;;4439320;32;19971;-72
2023/02/26 12:26:31;;;;;;;;;;;;;;;;;;4432456;32;19937;-74
2023/02/26 12:28:57;;;;;;;;;;;;;;;;;;4430576;32;20082;-73
2023/02/26 12:31:23;;;;;;;;;;;;;;;;;;4418747;32;19953;-74
2023/02/26 12:33:48;;;;;;;;;;;;;;;;;;4432335;32;19977;-74
2023/02/26 12:36:16;;;;;;;;;;;;;;;;;;4428292;32;19976;-73
2023/02/26 12:38:41;;;;;;;;;;;;;;;;;;4428807;32;19985;-72
2023/02/26 12:41:06;;;;;;;;;;;;;;;;;;4430798;32;20288;-73
2023/02/26 12:43:31;;;;;;;;;;;;;;;;;;4431204;32;19937;-73
2023/02/26 12:45:58;;;;;;;;;;;;;;;;;;4414578;32;19976;-74
2023/02/26 12:48:23;;;;;;;;;;;;;;;;;;4429467;32;19983;-73
2023/02/26 12:50:48;;;;;;;;;;;;;;;;;;4429010;32;19944;-73
2023/02/26 12:53:13;;;;;;;;;;;;;;;;;;4427379;32;20406;-74
2023/02/26 12:55:38;;;;;;;;;;;;;;;;;;4432006;32;19975;-72
2023/02/26 12:58:03;;;;;;;;;;;;;;;;;;4432701;32;20040;-74
2023/02/26 13:00:29;;;;;;;;;;;;;;;;;;4431033;32;19992;-74
2023/02/26 13:02:54;;;;;;;;;;;;;;;;;;4427553;32;20007;-74
2023/02/26 13:05:19;;;;;;;;;;;;;;;;;;4430121;32;19965;-74
2023/02/26 13:07:48;;;;;;;;;;;;;;;;;;4418786;32;20484;-74
2023/02/26 13:10:13;;;;;;;;;;;;;;;;;;4431278;32;19976;-73
2023/02/26 13:12:38;;;;;;;;;;;;;;;;;;4430307;32;19937;-73
2023/02/26 13:15:03;;;;;;;;;;;;;;;;;;4428321;32;19953;-74
2023/02/26 13:17:28;;;;;;;;;;;;;;;;;;4428749;32;20300;-74
2023/02/26 13:19:54;;;;;;;;;;;;;;;;;;4429918;32;20099;-74
2023/02/26 13:22:19;;;;;;;;;;;;;;;;;;4427899;32;20326;-75
2023/02/26 13:24:44;;;;;;;;;;;;;;;;;;4415631;32;20031;-73
2023/02/26 13:27:09;;;;;;;;;;;;;;;;;;4428938;32;19958;-73
2023/02/26 13:29:35;;;;;;;;;;;;;;;;;;4428337;32;19977;-74
2023/02/26 13:32:00;;;;;;;;;;;;;;;;;;4428088;32;20354;-74
2023/02/26 13:34:25;;;;;;;;;;;;;;;;;;4413959;32;19941;-74
2023/02/26 13:36:50;;;;;;;;;;;;;;;;;;4431749;32;19936;-74
2023/02/26 13:39:20;;;;;;;;;;;;;;;;;;4431093;32;19974;-73
2023/02/26 13:41:45;;;;;;;;;;;;;;;;;;4431344;32;19937;-74
2023/02/26 13:44:10;;;;;;;;;;;;;;;;;;4417717;32;19978;-74
2023/02/26 13:46:36;;;;;;;;;;;;;;;;;;4427718;32;19953;-74
2023/02/26 13:49:02;;;;;;;;;;;;;;;;;;4431940;32;20322;-74
2023/02/26 13:51:27;;;;;;;;;;;;;;;;;;4426813;32;19951;-74
2023/02/26 13:53:53;;;;;;;;;;;;;;;;;;4431138;32;19972;-74
2023/02/26 13:56:18;;;;;;;;;;;;;;;;;;4431623;32;20295;-74
2023/02/26 13:58:43;;;;;;;;;;;;;;;;;;4425279;32;19944;-74
2023/02/26 14:01:08;;;;;;;;;;;;;;;;;;4432966;32;19957;-74
2023/02/26 14:03:33;;;;;;;;;;;;;;;;;;4431248;32;20002;-74
2023/02/26 14:05:58;;;;;;;;;;;;;;;;;;4425080;32;19937;-73
2023/02/26 14:08:23;;;;;;;;;;;;;;;;;;4425254;32;19991;-73
2023/02/26 14:10:49;;;;;;;;;;;;;;;;;;4425262;32;20300;-73
2023/02/26 14:13:14;;;;;;;;;;;;;;;;;;4430908;32;20043;-73
2023/02/26 14:15:39;;;;;;;;;;;;;;;;;;4417065;32;19952;-73
2023/02/26 14:18:04;;;;;;;;;;;;;;;;;;4414443;32;19937;-74
2023/02/26 14:20:29;;;;;;;;;;;;;;;;;;4428149;32;20274;-73
2023/02/26 14:22:54;;;;;;;;;;;;;;;;;;4433658;32;19975;-73
2023/02/26 14:25:21;;;;;;;;;;;;;;;;;;4431968;32;19936;-74
2023/02/26 14:27:46;;;;;;;;;;;;;;;;;;4426800;32;20066;-74
2023/02/26 14:30:16;;;;;;;;;;;;;;;;;;4428912;32;20001;-74
2023/02/26 14:32:41;;;;;;;;;;;;;;;;;;4422303;32;21403;-73
2023/02/26 14:35:07;;;;;;;;;;;;;;;;;;4421380;32;19971;-74
2023/02/26 14:37:32;;;;;;;;;;;;;;;;;;4419256;32;19954;-75
2023/02/26 14:39:57;;;;;;;;;;;;;;;;;;4420099;32;19932;-73
2023/02/26 14:42:22;;;;;;;;;;;;;;;;;;4420725;32;19937;-74
2023/02/26 14:44:47;;;;;;;;;;;;;;;;;;4422030;32;19941;-73
2023/02/26 14:47:20;;;;;;;;;;;;;;;;;;4424193;32;19996;-73
2023/02/26 14:49:45;;;;;;;;;;;;;;;;;;4423705;32;20287;-74
2023/02/26 14:52:10;;;;;;;;;;;;;;;;;;4421248;32;20317;-75
2023/02/26 14:54:35;;;;;;;;;;;;;;;;;;4409816;32;19945;-74
2023/02/26 14:57:01;;;;;;;;;;;;;;;;;;4422832;32;19971;-74
2023/02/26 14:59:26;;;;;;;;;;;;;;;;;;4421708;32;19981;-74
2023/02/26 15:01:51;;;;;;;;;;;;;;;;;;4407190;32;20333;-74
2023/02/26 15:04:16;;;;;;;;;;;;;;;;;;4436164;32;20227;-74
2023/02/26 15:06:42;;;;;;;;;;;;;;;;;;4436429;32;19933;-74
2023/02/26 15:09:07;;;;;;;;;;;;;;;;;;4437186;32;20000;-73
2023/02/26 15:11:32;;;;;;;;;;;;;;;;;;4421847;32;19956;-74
2023/02/26 15:13:57;;;;;;;;;;;;;;;;;;4436040;32;19951;-74
2023/02/26 15:16:22;;;;;;;;;;;;;;;;;;4422395;32;19944;-74
2023/02/26 15:18:47;;;;;;;;;;;;;;;;;;4437220;32;19937;-74
2023/02/26 15:21:12;;;;;;;;;;;;;;;;;;4435121;32;19937;-74
2023/02/26 15:23:38;;;;;;;;;;;;;;;;;;4436890;32;19945;-73
2023/02/26 15:26:03;;;;;;;;;;;;;;;;;;4437065;32;20481;-74
2023/02/26 15:28:29;;;;;;;;;;;;;;;;;;4436007;32;19956;-74
2023/02/26 15:30:54;;;;;;;;;;;;;;;;;;4421491;32;19987;-74
2023/02/26 15:33:19;;;;;;;;;;;;;;;;;;4435482;32;19963;-74
2023/02/26 15:35:44;;;;;;;;;;;;;;;;;;4435377;32;20352;-74
2023/02/26 15:38:09;;;;;;;;;;;;;;;;;;4435407;32;19980;-75
2023/02/26 15:40:34;;;;;;;;;;;;;;;;;;4435089;32;19956;-75
2023/02/26 15:43:00;;;;;;;;;;;;;;;;;;4430234;32;20221;-74
2023/02/26 15:45:25;;;;;;;;;;;;;;;;;;4420923;32;19937;-73
2023/02/26 15:47:50;;;;;;;;;;;;;;;;;;4421501;32;19937;-74
2023/02/26 15:50:15;;;;;;;;;;;;;;;;;;4422951;32;19980;-75
2023/02/26 15:52:41;;;;;;;;;;;;;;;;;;4422933;32;20311;-74
2023/02/26 15:55:06;;;;;;;;;;;;;;;;;;4424089;32;20057;-73
2023/02/26 15:57:31;;;;;;;;;;;;;;;;;;4423388;32;19933;-75
2023/02/26 15:59:56;;;;;;;;;;;;;;;;;;4421972;32;20319;-74
2023/02/26 16:02:21;;;;;;;;;;;;;;;;;;4423259;32;20349;-75
2023/02/26 16:04:46;;;;;;;;;;;;;;;;;;4428825;32;19941;-73
2023/02/26 16:07:11;;;;;;;;;;;;;;;;;;4427216;32;19952;-74
2023/02/26 16:09:36;;;;;;;;;;;;;;;;;;4432883;32;19952;-74
2023/02/26 16:12:02;;;;;;;;;;;;;;;;;;4440234;32;20208;-74
2023/02/26 16:14:27;;;;;;;;;;;;;;;;;;4438207;32;19971;-74
2023/02/26 16:16:52;;;;;;;;;;;;;;;;;;4421201;32;19951;-72
2023/02/26 16:19:17;;;;;;;;;;;;;;;;;;4424467;32;20378;-73
2023/02/26 16:21:42;;;;;;;;;;;;;;;;;;4427664;32;19952;-74
2023/02/26 16:24:09;;;;;;;;;;;;;;;;;;4453249;32;19944;-73
2023/02/26 16:26:34;;;;;;;;;;;;;;;;;;4454133;32;19940;-73
2023/02/26 16:28:59;;;;;;;;;;;;;;;;;;4454315;32;19951;-73
2023/02/26 16:31:24;;;;;;;;;;;;;;;;;;4411546;32;19955;-74